createdAt,value
2019-02-10T00:01:32.861Z,99.90
2019-02-10T00:09:58.541Z,99.90
2019-02-10T00:12:40.601Z,99.90
2019-02-10T00:15:21.697Z,99.90
2019-02-10T00:24:19.500Z,99.90
2019-02-10T00:29:58.914Z,99.90
2019-02-10T00:32:39.753Z,99.90
2019-02-10T00:35:22.717Z,99.90
2019-02-10T00:38:06.459Z,99.90
2019-02-10T00:40:47.604Z,99.90
2019-02-10T00:49:35.126Z,99.90
2019-02-10T00:58:32.223Z,99.90
2019-02-10T01:07:15.744Z,99.90
2019-02-10T01:18:42.147Z,99.90
2019-02-10T01:24:27.410Z,99.90
2019-02-10T01:27:07.951Z,99.90
2019-02-10T01:37:16.553Z,99.90
2019-02-10T01:38:41.001Z,99.90
2019-02-10T01:41:21.800Z,99.90
2019-02-10T01:44:02.622Z,99.90
2019-02-10T01:46:44.896Z,99.90
2019-02-10T01:52:25.934Z,99.90
2019-02-10T02:01:22.750Z,99.90
2019-02-10T02:04:03.447Z,99.90
2019-02-10T02:09:45.100Z,99.90
2019-02-10T02:12:26.278Z,99.90
2019-02-10T02:18:11.560Z,99.90
2019-02-10T02:20:56.131Z,99.90
2019-02-10T02:23:39.930Z,99.90
2019-02-10T02:29:23.868Z,99.90
2019-02-10T02:32:04.729Z,99.90
2019-02-10T02:34:45.676Z,99.90
2019-02-10T02:37:29.494Z,99.90
2019-02-10T02:40:10.217Z,99.90
2019-02-10T02:48:51.083Z,99.90
2019-02-10T02:51:31.379Z,99.90
2019-02-10T02:54:11.928Z,99.90
2019-02-10T02:56:54.575Z,99.90
2019-02-10T02:59:36.914Z,99.90
2019-02-10T03:02:20.669Z,99.90
2019-02-10T03:05:02.896Z,99.90
2019-02-10T03:07:43.999Z,99.90
2019-02-10T03:10:24.496Z,99.90
2019-02-10T03:13:04.910Z,99.90
2019-02-10T03:15:48.635Z,99.90
2019-02-10T03:18:29.881Z,99.90
2019-02-10T03:24:15.049Z,99.90
2019-02-10T03:32:28.216Z,99.90
2019-02-10T03:35:09.558Z,99.90
2019-02-10T03:37:49.946Z,99.90
2019-02-10T03:40:32.168Z,99.90
2019-02-10T03:43:12.454Z,99.90
2019-02-10T03:45:56.719Z,99.90
2019-02-10T03:48:39.475Z,99.90
2019-02-10T03:54:21.880Z,99.90
2019-02-10T03:57:02.689Z,99.90
2019-02-10T03:59:44.970Z,99.90
2019-02-10T04:02:28.134Z,99.90
2019-02-10T04:07:54.947Z,99.90
2019-02-10T04:10:37.655Z,99.90
2019-02-10T04:13:19.085Z,99.90
2019-02-10T04:16:00.416Z,99.90
2019-02-10T04:21:46.695Z,99.90
2019-02-10T04:27:29.121Z,99.90
2019-02-10T04:30:10.119Z,99.90
2019-02-10T04:32:53.683Z,99.90
2019-02-10T04:35:35.618Z,99.90
2019-02-10T04:38:19.195Z,99.90
2019-02-10T04:44:03.471Z,99.90
2019-02-10T04:46:46.283Z,99.90
2019-02-10T04:49:29.417Z,99.90
2019-02-10T04:52:13.173Z,99.90
2019-02-10T04:54:53.578Z,99.90
2019-02-10T04:57:40.654Z,99.90
2019-02-10T05:00:22.653Z,99.90
2019-02-10T05:06:08.782Z,99.90
2019-02-10T05:08:50.014Z,99.90
2019-02-10T05:11:33.762Z,99.90
2019-02-10T05:20:25.216Z,99.90
2019-02-10T05:23:07.455Z,99.90
2019-02-10T05:25:48.325Z,99.90
2019-02-10T05:31:10.904Z,99.90
2019-02-10T05:33:53.153Z,99.90
2019-02-10T05:36:34.327Z,99.90
2019-02-10T05:39:18.252Z,99.90
2019-02-10T05:42:00.803Z,99.90
2019-02-10T05:44:43.353Z,99.90
2019-02-10T05:47:26.957Z,99.90
2019-02-10T05:52:52.247Z,99.90
2019-02-10T05:55:33.307Z,99.90
2019-02-10T05:58:14.063Z,99.90
2019-02-10T06:00:54.457Z,99.90
2019-02-10T06:03:35.319Z,99.90
2019-02-10T06:06:16.432Z,99.90
2019-02-10T06:08:57.160Z,99.90
2019-02-10T06:11:39.503Z,99.90
2019-02-10T06:14:20.246Z,99.90
2019-02-10T06:17:01.084Z,99.90
2019-02-10T06:19:41.603Z,99.90
2019-02-10T06:22:22.204Z,99.90
2019-02-10T06:25:02.955Z,99.90
2019-02-10T06:27:43.656Z,99.90
2019-02-10T06:30:24.287Z,99.90
2019-02-10T06:33:04.669Z,99.90
2019-02-10T06:35:45.370Z,99.90
2019-02-10T06:38:25.844Z,99.90
2019-02-10T06:41:06.393Z,99.90
2019-02-10T06:43:47.493Z,99.90
2019-02-10T06:49:28.287Z,99.90
2019-02-10T06:52:08.823Z,99.90
2019-02-10T06:54:55.431Z,99.90
2019-02-10T06:57:36.479Z,99.90
2019-02-10T07:03:13.137Z,99.90
2019-02-10T07:05:53.945Z,99.90
2019-02-10T07:08:34.630Z,99.90
2019-02-10T07:11:15.441Z,99.90
2019-02-10T07:13:55.938Z,99.90
2019-02-10T07:16:36.922Z,99.90
2019-02-10T07:19:17.769Z,99.90
2019-02-10T07:21:58.593Z,99.90
2019-02-10T07:24:39.206Z,99.90
2019-02-10T07:27:20.341Z,99.90
2019-02-10T07:30:01.193Z,99.90
2019-02-10T07:32:42.015Z,99.90
2019-02-10T07:35:22.938Z,99.90
2019-02-10T07:38:03.666Z,99.90
2019-02-10T07:40:44.009Z,99.90
2019-02-10T07:43:25.540Z,99.90
2019-02-10T07:49:06.478Z,99.90
2019-02-10T07:51:47.176Z,99.90
2019-02-10T07:57:27.070Z,99.90
2019-02-10T08:00:09.366Z,99.90
2019-02-10T08:05:51.382Z,99.90
2019-02-10T08:08:32.182Z,99.90
2019-02-10T08:11:13.000Z,99.90
2019-02-10T08:13:53.635Z,99.90
2019-02-10T08:19:48.248Z,99.90
2019-02-10T08:22:29.170Z,99.90
2019-02-10T08:25:10.997Z,99.90
2019-02-10T08:27:51.694Z,99.90
2019-02-10T08:30:32.324Z,99.90
2019-02-10T08:33:13.151Z,99.90
2019-02-10T08:38:35.702Z,99.90
2019-02-10T08:44:29.550Z,99.90
2019-02-10T08:47:10.294Z,99.90
2019-02-10T08:49:50.883Z,99.90
2019-02-10T08:52:31.490Z,99.90
2019-02-10T08:55:13.382Z,99.90
2019-02-10T08:57:53.633Z,99.90
2019-02-10T09:00:34.489Z,99.90
2019-02-10T09:03:19.674Z,99.90
2019-02-10T09:05:57.752Z,99.90
2019-02-10T09:08:38.821Z,99.90
2019-02-10T09:11:17.732Z,99.90
2019-02-10T09:14:05.658Z,99.90
2019-02-10T09:16:53.804Z,99.70
2019-02-10T09:19:41.628Z,98.50
2019-02-10T09:22:30.090Z,96.90
2019-02-10T09:25:17.978Z,94.70
2019-02-10T09:28:05.873Z,89.10
2019-02-10T09:30:53.752Z,83.20
2019-02-10T09:33:41.900Z,84.60
2019-02-10T09:36:31.871Z,79.80
2019-02-10T09:39:13.056Z,72.20
2019-02-10T09:45:06.765Z,77.60
2019-02-10T09:51:00.968Z,84.60
2019-02-10T09:53:41.630Z,86.50
2019-02-10T09:56:25.541Z,90.70
2019-02-10T09:59:06.921Z,91.50
2019-02-10T10:01:47.748Z,93.10
2019-02-10T10:07:27.313Z,98.20
2019-02-10T10:10:07.975Z,99.90
2019-02-10T10:12:48.822Z,99.90
2019-02-10T10:15:29.571Z,99.90
2019-02-10T10:18:10.377Z,99.90
2019-02-10T10:20:51.005Z,99.90
2019-02-10T10:23:32.449Z,99.90
2019-02-10T10:35:10.636Z,99.90
2019-02-10T10:37:51.237Z,99.90
2019-02-10T10:46:46.104Z,99.90
2019-02-10T10:49:26.936Z,99.90
2019-02-10T10:52:07.589Z,99.90
2019-02-10T10:54:47.975Z,99.90
2019-02-10T10:57:28.534Z,99.90
2019-02-10T11:00:08.879Z,99.90
2019-02-10T11:02:49.525Z,99.90
2019-02-10T11:05:31.345Z,99.90
2019-02-10T11:08:11.619Z,99.90
2019-02-10T11:10:52.159Z,99.90
2019-02-10T11:13:33.025Z,99.90
2019-02-10T11:16:13.838Z,99.90
2019-02-10T11:18:54.701Z,99.90
2019-02-10T11:21:36.667Z,99.90
2019-02-10T11:24:17.801Z,99.90
2019-02-10T11:26:58.646Z,99.90
2019-02-10T11:29:40.895Z,99.90
2019-02-10T11:32:21.663Z,99.40
2019-02-10T11:38:01.589Z,96.50
2019-02-10T11:40:42.248Z,95.20
2019-02-10T11:43:23.082Z,93.90
2019-02-10T11:46:04.082Z,93.90
2019-02-10T11:48:45.226Z,92.10
2019-02-10T11:57:37.321Z,90.20
2019-02-10T12:00:18.274Z,89.10
2019-02-10T12:02:58.610Z,89.70
2019-02-10T12:05:39.195Z,87.40
2019-02-10T12:08:19.750Z,85.90
2019-02-10T12:14:00.996Z,88.30
2019-02-10T12:16:41.914Z,85.30
2019-02-10T12:19:25.180Z,87.30
2019-02-10T12:22:07.492Z,85.90
2019-02-10T12:30:58.803Z,82.10
2019-02-10T12:33:39.787Z,82.00
2019-02-10T12:36:20.694Z,79.20
2019-02-10T12:39:01.713Z,77.00
2019-02-10T12:41:42.615Z,70.80
2019-02-10T12:50:34.327Z,63.10
2019-02-10T12:53:15.053Z,62.80
2019-02-10T12:55:56.291Z,64.70
2019-02-10T13:01:50.130Z,59.40
2019-02-10T13:04:30.649Z,59.30
2019-02-10T13:07:11.092Z,59.10
2019-02-10T13:09:53.728Z,59.00
2019-02-10T13:12:35.036Z,60.00
2019-02-10T13:21:26.801Z,63.30
2019-02-10T13:24:07.655Z,64.20
2019-02-10T13:26:49.315Z,65.50
2019-02-10T13:29:32.142Z,66.70
2019-02-10T13:32:14.297Z,67.30
2019-02-10T13:34:54.694Z,67.70
2019-02-10T13:37:35.487Z,70.80
2019-02-10T13:40:16.956Z,71.60
2019-02-10T13:49:09.567Z,70.30
2019-02-10T13:55:02.898Z,69.80
2019-02-10T13:57:43.710Z,70.80
2019-02-10T14:03:23.575Z,71.10
2019-02-10T14:06:07.511Z,71.50
2019-02-10T14:08:47.987Z,70.60
2019-02-10T14:11:28.822Z,70.90
2019-02-10T14:14:09.307Z,69.70
2019-02-10T14:16:50.085Z,70.80
2019-02-10T14:19:30.925Z,71.50
2019-02-10T14:25:10.844Z,73.00
2019-02-10T14:27:53.057Z,74.50
2019-02-10T14:30:34.011Z,74.80
2019-02-10T14:33:14.844Z,76.30
2019-02-10T14:35:55.707Z,75.70
2019-02-10T14:38:36.672Z,76.90
2019-02-10T14:41:17.757Z,77.20
2019-02-10T14:44:00.142Z,78.50
2019-02-10T14:46:41.138Z,78.50
2019-02-10T14:58:17.432Z,80.40
2019-02-10T15:00:58.066Z,81.90
2019-02-10T15:03:38.850Z,80.70
2019-02-10T15:12:21.120Z,78.90
2019-02-10T15:15:01.710Z,79.70
2019-02-10T15:17:42.680Z,80.10
2019-02-10T15:20:24.564Z,82.60
2019-02-10T15:26:03.878Z,90.00
2019-02-10T15:28:44.398Z,93.20
2019-02-10T15:31:24.934Z,94.70
2019-02-10T15:34:05.407Z,97.20
2019-02-10T15:36:46.100Z,99.00
2019-02-10T15:39:27.041Z,99.90
2019-02-10T15:42:09.415Z,99.90
2019-02-10T15:47:48.802Z,99.90
2019-02-10T15:50:31.435Z,99.90
2019-02-10T15:53:13.702Z,99.90
2019-02-10T15:55:55.705Z,99.90
2019-02-10T15:58:39.233Z,99.90
2019-02-10T16:04:34.229Z,99.90
2019-02-10T16:19:23.783Z,99.90
2019-02-10T16:25:03.226Z,99.90
2019-02-10T16:30:45.168Z,99.90
2019-02-10T16:42:34.976Z,99.90
2019-02-10T16:45:15.451Z,99.90
2019-02-10T16:47:56.145Z,99.90
2019-02-10T17:02:33.681Z,99.90
2019-02-10T17:08:29.343Z,99.90
2019-02-10T17:14:09.458Z,99.90
2019-02-10T17:19:53.271Z,99.90
2019-02-10T17:22:33.967Z,99.90
2019-02-10T17:25:16.069Z,99.90
2019-02-10T17:27:57.579Z,99.90
2019-02-10T17:30:38.445Z,99.90
2019-02-10T17:33:18.775Z,99.90
2019-02-10T17:35:59.837Z,99.90
2019-02-10T17:53:21.996Z,99.90
2019-02-10T17:59:15.615Z,99.90
2019-02-10T18:05:09.541Z,99.90
2019-02-10T18:35:02.588Z,99.90
2019-02-10T18:49:58.614Z,99.90
2019-02-10T19:04:53.496Z,99.90
2019-02-10T19:13:33.048Z,99.90
2019-02-10T19:22:51.768Z,99.90
2019-02-10T19:34:42.645Z,99.90
2019-02-10T19:37:28.260Z,99.90
2019-02-10T19:49:37.892Z,99.90
2019-02-10T19:55:32.651Z,99.90
2019-02-10T19:58:15.000Z,99.90
2019-02-10T20:22:04.092Z,99.90
2019-02-10T20:39:42.767Z,99.90
2019-02-10T20:51:43.745Z,99.90
2019-02-10T21:15:46.219Z,99.90
2019-02-10T21:18:31.288Z,99.90
2019-02-10T21:24:30.172Z,99.90
2019-02-10T21:27:15.620Z,99.90
2019-02-10T21:30:15.704Z,99.90
2019-02-10T22:14:27.963Z,99.90
2019-02-10T22:32:00.498Z,99.90
2019-02-10T22:34:41.201Z,99.90
2019-02-10T22:43:18.993Z,99.90
2019-02-10T22:45:59.938Z,99.90
2019-02-10T22:51:38.924Z,99.90
2019-02-10T23:09:22.862Z,99.90
2019-02-10T23:12:03.328Z,99.90
2019-02-10T23:23:39.166Z,99.90
2019-02-10T23:41:15.366Z,99.90
2019-02-10T23:50:06.442Z,99.90
2019-02-10T23:58:59.441Z,99.90
